الصفحة الرئيسية
METAR-TAF:

METAR-TAF

مطار :

مطار بكين العاصمة الدولي

بكين, جمهورية الصين الشعبية

دائرة عرض: 39-56N, خط طول: 116-17E, ارتفاع: 55 متر

مراقبة الطقس الحالي

تاريخ ووقت الإصدار 39 دقيقة قبل الساعة 04:30UTC
ريح 4 عقدةمن اتجاهات متغيرة
درجة الحرارة 28°درجة مئوية
الرطوبة 70%
ضغط 1004 hPa
الرؤية: 8000 متر

METAR: ZBAA 160430Z VRB02MPS 8000 NSC 28/22 Q1004 NOSIG

زمن: 13:09 (05:09 UTC)

توقعات

تاريخ ووقت الإصدار 8ساعات و 8 دقيقة قبل الساعة 21:01UTC
التوقعات صالحة من16 الساعة 00 UTC إلى 16 الساعة 24 UTC
ريح 8 عقدة من الجنوب الشرقي
الرؤية: 3500 متر
غشاء
مؤقت
من 16 الساعة 07 UTC إلى 16 الساعة 13 UTC
غيوم قليلة على ارتفاع 5000 قدم, مزنة ركامية.
عاصفة رعدية,

TAF: ZBAA 152101Z 1600/1624 13004MPS 3500 BR NSC TX31/1607Z TN22/1621Z TEMPO 1607/1613 TS FEW050CB

أرصاد الطقس والتوقعات من أكثر من 4000 مطار (تقارير الطقس للمطار METAR والتنبؤ بالطقس بالمطارTAF).

المحطات المتاحة هي النقط الصفراء والحمراء على الخريطة.

حرك المؤشر فوق النقطة لمعرفة اسم المحطة.

ثم انقر لمعرفة أرصاد وتوقعات الطقس.

لتغيير الخارطة: اضغط على الأزرار الخضراء مع رمز الصليب الأسود للتكبير. على الزر الأخضر مع شرطة للتصغير، أو على الأسهم الخضراء للخرائط المجاورة.


METAR-TAF: